Bruk link Alternativ webside om du vil se statistikk,rapport,graf,analyse og mye mer.





Vårt webkamera mer informasjon My webcam


Kamera på Foreneset mer informasjon webcam on foreneset


Nedbørsradar  rain snow radar


Besøk vår andre værside:

Alternativ webside

iphone versjon

Nettbrett versjon

Foreneset
verstasjon



Nære METAR rapporter

     
ENZV - Stavanger
oppdatert: 17-04-2024 16:20
Få Skyer  
Få Skyer  
   Vind: NV 7.7 m/s
Vind: NV 7.7 m/s
Temperatur: 8°C
Wind Chill: 4°C
Duggpunkt: 3°C
Fuktighet: 71%
Barometer: 1011 hPa
Skyer: Få Skyer
Sikt: mer enn 10 km
Skydetaljer: Få Skyer 670.6 m
ENZV 171420Z 31015KT 9999 FEW022 08/03 Q1011 NOSIG
ENHD - Haugesund
oppdatert: 17-04-2024 16:20
Få Skyer  
Få Skyer  
   Vind: VNV 5.7 m/s
Vind: VNV 5.7 m/s
Temperatur: 8°C
Wind Chill: 5°C
Duggpunkt: 1°C
Fuktighet: 62%
Barometer: 1011 hPa
Skyer: Få Skyer
Sikt: mer enn 10 km
Skydetaljer: Få Skyer 457.2 m
ENHD 171420Z 30011KT 9999 FEW015 08/01 Q1011
ENBR - Bergen
oppdatert: 17-04-2024 16:20
Delvis Skyet  
Delvis Skyet  
   Vind: NV 4.1 m/s
Vind: NV 4.1 m/s
Temperatur: 8°C
Wind Chill: 6°C
Duggpunkt: 3°C
Fuktighet: 71%
Barometer: 1010 hPa
Skyer: Delvis Skyet
Sikt: mer enn 10 km
Skydetaljer: Delvis Skyet 670.6 m
ENBR 171420Z 31008KT 260V350 9999 SCT022 08/03 Q1010 NOSIG RMK WIND 1200FT 35008KT
ENCN - Kristiansand
oppdatert: 17-04-2024 16:20
Klart  
Klart  
   Vind: Sør 6.7 m/s
Vind: Sør 6.7 m/s
Temperatur: 10°C
Wind Chill: 7°C
Duggpunkt: -2°C
Fuktighet: 43%
Barometer: 1009 hPa
Sikt: mer enn 10 km
Skydetaljer: Klart
ENCN 171420Z 19013KT CAVOK 10/M02 Q1009
ENGM - Oslo
oppdatert: 17-04-2024 16:20
Klart  
Klart  
   Vind: Nord 6.7 m/s
Vind: Nord 6.7 m/s
Temperatur: 7°C
Wind Chill: 3°C
Duggpunkt: -9°C
Fuktighet: 31%
Barometer: 1010 hPa
Sikt: mer enn 10 km
Skydetaljer: Klart
ENGM 171420Z 01013KT 330V030 CAVOK 07/M09 Q1010 NOSIG
ENVA - Trondheim
oppdatert: 17-04-2024 16:20
Lette byger, Regn, For det meste skyet  
Lette byger, Regn, For det meste skyet  
   Vind: varierer 2.1 m/s
Vind: varierer 2.1 m/s
Temperatur: 5°C
Wind Chill: 3°C
Duggpunkt: -1°C
Fuktighet: 66%
Barometer: 1014 hPa
Skyer: For det meste skyet
Sikt: mer enn 10 km
Skydetaljer: Få Skyer 548.6 m,
Delvis Skyet 914.4 m,
For det meste skyet 1310.6 m
ENVA 171420Z VRB04KT 9999 -SHRA FEW018 SCT030 BKN043 05/M01 Q1014 TEMPO 4000 SHRASN BKN008 SCT020CB RMK WIND 670FT 30009KT
    

Script utviklet av  Saratoga-weather.org Tilrettelagt for malen av  Weerstation Leuven

Du finner vår vær info også på:

UK Metoffice

European Weather Network

WeatherCloud

Weather Underground

Utstyr vi bruker:

Værstsjon
Davis VP2

Værprogram
Weather Display

Davis VP2

Weather Display